Currently 63°F in Simi Valley, California, USA
63°F
70°F / 63°F
calm
0.00"
Thursday, September 23, 2021 5:41 AM PDT

Simi Valley, California Climate Summary
Typical August Day

Normal High:    88.6°F (31.4°C)
Normal Low:    61.8°F (16.5°C)
Average:    74.1°F (23.4°C)

Hour    Temperature    Wind Speed    Humidity
12:00 AM    68°F (20°C)    1 mph    63%
1:00 AM    67°F (19°C)    1 mph    64%
2:00 AM    66°F (19°C)    1 mph    66%
3:00 AM    65°F (18°C)    1 mph    67%
4:00 AM    64°F (18°C)    1 mph    68%
5:00 AM    63°F (17°C)    1 mph    70%
6:00 AM    63°F (17°C)    1 mph    71%
7:00 AM    63°F (17°C)    1 mph    72%
8:00 AM    66°F (19°C)    1 mph    71%
9:00 AM    71°F (22°C)    1 mph    65%
10:00 AM    77°F (25°C)    3 mph    56%
11:00 AM    82°F (28°C)    4 mph    47%
12:00 PM    85°F (29°C)    5 mph    42%
1:00 PM    87°F (30°C)    7 mph    40%
2:00 PM    87°F (31°C)    7 mph    40%
3:00 PM    87°F (30°C)    7 mph    40%
4:00 PM    86°F (30°C)    7 mph    40%
5:00 PM    84°F (29°C)    6 mph    41%
6:00 PM    82°F (28°C)    5 mph    44%
7:00 PM    80°F (27°C)    4 mph    48%
8:00 PM    76°F (24°C)    3 mph    55%
9:00 PM    73°F (23°C)    1 mph    60%
10:00 PM    71°F (22°C)    1 mph    62%
11:00 PM    69°F (21°C)    1 mph    62%
 

The Simi Valley, California weather pages are a service of WeatherCurrents.
Copyright ©2021  WeatherCurrents. All rights reserved. - Submit questions and comments - Privacy Policy